Latest Weather Observations for Flinders Island Airport

IDT60801

Issued at 5:31 am EDT Sunday 25 October 2020 (issued every 10 minutes, with the page automatically refreshed every 10 minutes)

About weather observations | Map of weather stations | Latest weather observations for TAS | Other Formats
Station Details ID: 099005 Name: FLINDERS ISLAND AIRPORT Lat: -40.09 Lon: 148.00 Height: 9.0 m
Data from the previous 72 hours. | See also: Recent months at Flinders Island Airport
Date/Time
EDT
Temp
°C
App
Temp
°C
Dew
Point
°C
Rel
Hum
%
Delta-T
°C
Wind Press
QNH
hPa
Press
MSL
hPa
Rain since
9am
mm
Dir  Spd
km/h
Gust
km/h
Spd
kts
Gust
kts
25/05:30am 7.6 1.7 3.8 77 1.6 SSE 24 41 13 22 1015.7 1015.7 0.4
25/05:00am 7.9 3.1 5.5 85 1.1 SSE 20 37 11 20 1014.9 1014.9 0.2
25/04:30am 8.8 4.0 5.7 81 1.4 SSE 20 35 11 19 1014.1 1014.1 0.2
25/04:00am 9.1 3.6 5.7 79 1.5 SSE 24 37 13 20 1013.5 1013.5 0.2
25/03:30am 9.1 4.4 6.2 82 1.3 SSE 20 35 11 19 1012.7 1012.7 0.2
25/03:00am 8.9 4.6 6.9 87 0.9 SSE 19 37 10 20 1012.0 1012.0 0.2
25/02:41am 8.9 5.2 8.1 95 0.4 SSE 17 32 9 17 1011.7 1011.7 0.2
25/02:30am 9.0 5.4 8.2 95 0.4 SSE 17 32 9 17 1011.5 1011.5 0.2
25/02:00am 9.6 5.8 9.0 96 0.3 SE 19 35 10 19 1010.9 1010.9 0.2
25/01:30am 9.8 6.2 8.4 91 0.7 SE 17 33 9 18 1010.4 1010.4 0.2
25/01:00am 12.4 11.0 12.2 99 0.1 S 11 19 6 10 1009.8 1009.8 0.2
25/12:30am 12.4 8.3 11.6 95 0.4 SSW 24 33 13 18 1009.4 1009.4 0.2
25/12:25am 12.4 7.4 11.0 91 0.7 SW 28 37 15 20 1009.3 1009.3 0.2
25/12:00am 12.0 3.5 7.1 72 2.4 SW 41 52 22 28 1008.9 1008.9 0.2
 
Date/Time
EDT
Temp
°C
App
Temp
°C
Dew
Point
°C
Rel
Hum
%
Delta-T
°C
Wind Press
QNH
hPa
Press
MSL
hPa
Rain since
9am
mm
Dir  Spd
km/h
Gust
km/h
Spd
kts
Gust
kts
24/11:30pm 11.7 2.0 7.6 76 2.0 WSW 48 57 26 31 1008.4 1008.4 0.2
24/11:00pm 11.9 3.1 7.2 73 2.3 WSW 43 54 23 29 1008.5 1008.5 0.2
24/10:30pm 12.2 3.1 6.9 70 2.5 WSW 44 52 24 28 1008.6 1008.6 0.2
24/10:00pm 12.5 3.9 8.2 75 2.1 WSW 43 52 23 28 1008.5 1008.5 0.2
24/09:30pm 12.6 3.8 7.1 69 2.7 WSW 43 54 23 29 1008.4 1008.4 0.2
24/09:00pm 12.9 2.7 5.3 60 3.5 WSW 48 57 26 31 1007.7 1007.7 0.2
24/08:30pm 12.8 3.9 6.8 67 2.9 WSW 43 54 23 29 1007.2 1007.2 0.2
24/08:00pm 12.8 4.8 7.3 69 2.7 W 39 50 21 27 1006.8 1006.8 0.2
24/07:30pm 12.9 4.6 7.6 70 2.6 WSW 41 48 22 26 1006.3 1006.3 0.2
24/07:00pm 13.3 4.7 8.2 71 2.5 W 43 50 23 27 1005.7 1005.7 0.2
24/06:30pm 14.1 6.1 8.9 71 2.6 WSW 41 48 22 26 1005.3 1005.3 0.2
24/06:00pm 13.5 6.1 8.4 71 2.6 W 37 46 20 25 1005.1 1005.1 0.2
24/05:30pm 13.5 5.4 8.6 72 2.5 W 41 50 22 27 1004.7 1004.7 0.2
24/05:00pm 13.7 6.1 9.0 73 2.4 W 39 48 21 26 1004.6 1004.6 0.2
24/04:30pm 15.1 7.5 9.2 68 3.0 WSW 39 48 21 26 1004.6 1004.6 0.2
24/04:00pm 14.5 7.5 10.1 75 2.3 WSW 37 41 20 22 1004.4 1004.4 0.2
24/03:30pm 14.1 8.0 9.9 76 2.2 W 32 39 17 21 1004.3 1004.3 0.2
24/03:00pm 14.2 8.6 10.2 77 2.1 WSW 30 35 16 19 1004.6 1004.6 0.2
24/02:30pm 14.4 10.0 10.4 77 2.1 W 24 32 13 17 1004.0 1004.0 0.2
24/02:00pm 13.9 8.7 10.3 79 1.9 WSW 28 32 15 17 1004.0 1004.0 0.2
24/01:30pm 13.5 8.3 10.1 80 1.8 WSW 28 33 15 18 1003.8 1003.8 0.2
24/01:00pm 13.5 8.5 11.0 85 1.3 WSW 28 33 15 18 1003.5 1003.5 0.2
24/12:30pm 13.5 8.0 11.7 89 1.0 WSW 32 37 17 20 1003.3 1003.3 0.2
24/12:00pm 13.7 8.7 12.3 91 0.8 WSW 30 35 16 19 1002.8 1002.8 0.2
24/11:38am 13.6 8.7 12.7 94 0.5 WSW 30 33 16 18 1002.5 1002.5 0.2
24/11:30am 13.6 8.5 12.0 90 0.9 WSW 30 35 16 19 1002.5 1002.5 0.0
24/11:00am 14.1 9.5 13.5 96 0.3 WSW 30 33 16 18 1002.3 1002.3 0.0
24/10:30am 14.2 10.2 14.0 99 0.1 WSW 28 35 15 19 1002.3 1002.3 0.0
24/10:00am 13.8 9.6 13.6 99 0.1 WSW 28 33 15 18 1002.1 1002.1 0.0
24/09:30am 13.8 10.4 13.8 100 0.0 WSW 24 32 13 17 1001.6 1001.6 0.0
24/09:00am 13.8 11.2 13.8 100 0.0 WSW 20 30 11 16 1001.7 1001.7 11.8
24/08:30am 13.8 11.2 13.8 100 0.0 SW 20 28 11 15 1001.7 1001.7 11.8
24/08:00am 13.6 10.9 13.6 100 0.0 SW 20 26 11 14 1001.3 1001.3 11.8
24/07:30am 13.8 11.4 13.8 100 0.0 SW 19 24 10 13 1001.0 1001.0 11.8
24/07:14am 13.9 12.3 13.9 100 0.0 SSW 15 17 8 9 1000.6 1000.6 11.8
24/07:00am 14.1 12.9 14.1 100 0.0 SSW 13 17 7 9 1000.6 1000.6 11.8
24/06:52am 14.2 13.1 14.2 100 0.0 SSW 13 15 7 8 1000.6 1000.6 11.8
24/06:30am 14.4 13.3 14.4 100 0.0 SW 13 17 7 9 1000.5 1000.5 11.8
24/06:00am 14.9 14.8 14.9 100 0.0 W 9 13 5 7 1000.7 1000.7 11.6
24/05:35am 15.0 14.5 15.0 100 0.0 WNW 11 11 6 6 1000.9 1000.9 11.2
24/05:30am 15.1 15.1 15.1 100 0.0 WNW 9 11 5 6 1000.9 1000.9 11.0
24/05:20am 15.2 15.2 15.2 100 0.0 WNW 9 11 5 6 1000.9 1000.9 10.8
24/05:00am 15.3 14.6 15.3 100 0.0 WNW 13 15 7 8 1001.0 1001.0 10.4
24/04:47am 15.3 14.2 15.3 100 0.0 W 15 20 8 11 1001.1 1001.1 10.4
24/04:30am 15.3 15.3 15.3 100 0.0 NW 9 13 5 7 1001.1 1001.1 10.0
24/04:00am 15.3 17.0 15.3 100 0.0 CALM 0 0 0 0 1001.3 1001.3 7.6
24/03:30am 15.2 16.9 15.2 100 0.0 CALM 0 0 0 0 1001.4 1001.4 3.6
24/03:28am 15.1 16.8 15.1 100 0.0 CALM 0 0 0 0 1001.3 1001.3 3.6
24/03:00am 15.2 16.9 15.2 100 0.0 CALM 0 0 0 0 1001.6 1001.6 3.0
24/02:44am 15.2 16.9 15.2 100 0.0 CALM 0 0 0 0 1001.8 1001.8 2.8
24/02:42am 15.2 16.9 15.2 100 0.0 CALM 0 0 0 0 1001.8 1001.8 2.6
24/02:30am 15.6 16.7 15.6 100 0.0 WNW 4 7 2 4 1001.9 1001.9 2.4
24/02:24am 15.6 16.7 15.6 100 0.0 WNW 4 7 2 4 1002.0 1002.0 2.2
24/02:00am 15.5 17.2 15.3 99 0.1 CALM 0 0 0 0 1002.3 1002.3 1.8
24/01:30am 15.7 17.5 15.5 99 0.1 CALM 0 0 0 0 1002.9 1002.9 1.4
24/01:09am 15.7 17.1 15.5 99 0.1 NNE 2 9 1 5 1003.3 1003.3 1.0
24/01:00am 15.7 16.2 15.5 99 0.1 N 7 11 4 6 1003.4 1003.4 1.0
24/12:49am 16.0 16.6 15.8 99 0.1 NNE 7 9 4 5 1003.6 1003.6 0.8
24/12:30am 15.5 16.9 15.3 99 0.1 E 2 7 1 4 1003.7 1003.7 0.6
24/12:00am 15.8 15.9 15.6 99 0.1 N 9 20 5 11 1003.9 1003.9 0.4
 
Date/Time
EDT
Temp
°C
App
Temp
°C
Dew
Point
°C
Rel
Hum
%
Delta-T
°C
Wind Press
QNH
hPa
Press
MSL
hPa
Rain since
9am
mm
Dir  Spd
km/h
Gust
km/h
Spd
kts
Gust
kts
23/11:30pm 15.6 16.2 15.4 99 0.1 S 6 9 3 5 1004.2 1004.2 0.2
23/11:00pm 15.4 16.7 15.2 99 0.1 S 2 9 1 5 1004.6 1004.6 0.2
23/10:30pm 16.0 16.8 15.8 99 0.1 SSW 6 9 3 5 1005.1 1005.1 0.2
23/10:00pm 15.1 15.4 14.9 99 0.1 SE 7 9 4 5 1005.4 1005.4 0.0
23/09:30pm 15.3 15.3 15.1 99 0.1 E 9 15 5 8 1005.7 1005.7 0.0
23/09:00pm 15.3 10.9 15.1 99 0.1 NE 32 39 17 21 1006.1 1006.1 0.0
23/08:30pm 15.2 14.0 15.0 99 0.1 E 15 24 8 13 1006.1 1006.1 0.0
23/08:00pm 15.6 13.6 15.0 96 0.3 NE 19 24 10 13 1005.9 1005.9 0.0
23/07:30pm 15.6 14.0 15.0 96 0.3 NE 17 20 9 11 1005.6 1005.6 0.0
23/07:00pm 15.9 13.7 14.8 93 0.6 ENE 20 28 11 15 1005.3 1005.3 0.0
23/06:30pm 16.5 15.2 14.9 90 0.9 NE 15 19 8 10 1005.6 1005.6 0.0
23/06:00pm 17.4 16.2 15.0 86 1.4 E 15 24 8 13 1005.7 1005.7 0.0
23/05:30pm 17.8 17.0 15.1 84 1.6 ENE 13 15 7 8 1006.0 1006.0 0.0
23/05:00pm 18.2 17.8 15.1 82 1.8 ENE 11 15 6 8 1006.6 1006.6 0.0
23/04:30pm 18.6 18.2 15.3 81 1.9 NE 11 15 6 8 1006.6 1006.6 0.0
23/04:00pm 18.4 18.9 14.9 80 2.0 NE 6 11 3 6 1007.0 1007.0 0.0
23/03:40pm 18.8 19.1 15.9 83 1.7 E 9 15 5 8 1007.2 1007.2 0.0
23/03:30pm 18.6 18.7 15.5 82 1.8 S 9 13 5 7 1007.5 1007.5 0.0
23/03:00pm 17.8 17.8 15.2 85 1.5 SSE 9 11 5 6 1008.0 1008.0 0.0
23/02:30pm 17.6 16.4 15.0 85 1.5 SSW 15 17 8 9 1008.3 1008.3 0.0
23/02:00pm 17.1 17.3 14.7 86 1.4 SE 7 11 4 6 1008.6 1008.6 0.0
23/01:30pm 16.8 16.5 14.4 86 1.4 S 9 13 5 7 1008.6 1008.6 0.0
23/01:00pm 16.7 16.4 14.5 87 1.3 SSW 9 11 5 6 1008.9 1008.9 0.0
23/12:30pm 16.6 17.6 14.2 86 1.4 WNW 2 11 1 6 1009.6 1009.6 0.0
23/12:00pm 16.4 16.1 14.4 88 1.1 NE 9 13 5 7 1009.9 1009.9 0.0
23/11:30am 16.0 15.4 14.7 92 0.7 NNE 11 17 6 9 1009.9 1009.9 0.0
23/11:00am 15.9 14.5 14.6 92 0.7 NE 15 19 8 10 1010.0 1010.0 0.0
23/10:30am 15.4 13.6 14.4 94 0.6 NE 17 20 9 11 1010.8 1010.8 0.0
23/10:00am 15.4 14.1 14.8 96 0.3 NNE 15 19 8 10 1011.1 1011.1 0.0
23/09:30am 15.1 15.2 13.8 92 0.7 NE 6 9 3 5 1011.4 1011.4 0.0
23/09:28am 15.1 15.2 13.8 92 0.7 NE 6 9 3 5 1011.4 1011.4 0.0
23/09:05am 14.7 14.1 13.6 93 0.6 ENE 9 13 5 7 1011.4 1011.4 0.0
23/09:00am 14.6 13.7 13.6 94 0.6 E 11 13 6 7 1011.3 1011.3 0.0
23/08:46am 14.2 14.0 13.7 97 0.3 SE 7 11 4 6 1011.4 1011.4 0.0
23/08:30am 13.9 14.7 13.6 98 0.2 SE 2 7 1 4 1011.6 1011.6 0.0
23/08:00am 13.3 12.9 13.1 99 0.1 SE 7 13 4 7 1011.3 1011.3 0.0
23/07:30am 12.6 12.2 12.4 99 0.1 E 6 7 3 4 1011.6 1011.6 0.0
23/07:00am 11.9 11.1 11.7 99 0.1 E 7 9 4 5 1011.6 1011.6 0.0
23/06:30am 10.9 9.1 10.7 99 0.1 ENE 11 13 6 7 1011.2 1011.2 0.0
23/06:00am 10.0 7.6 9.9 99 0.1 NE 13 15 7 8 1011.2 1011.2 0.0
23/05:30am 9.2 6.9 9.1 99 0.0 NE 11 13 6 7 1011.3 1011.3 0.0
23/05:00am 9.3 7.4 9.2 99 0.0 E 9 11 5 6 1011.6 1011.6 0.0
23/04:30am 8.8 7.4 8.7 99 0.0 ESE 6 9 3 5 1011.6 1011.6 0.0
23/04:00am 7.6 5.7 7.5 99 0.0 ESE 7 9 4 5 1011.5 1011.5 0.0
23/03:30am 7.9 6.3 7.8 99 0.0 ENE 6 9 3 5 1011.6 1011.6 0.0
23/03:00am 8.2 6.4 8.1 99 0.0 ENE 7 9 4 5 1012.0 1012.0 0.0
23/02:30am 9.1 6.8 9.0 99 0.0 ENE 11 11 6 6 1012.8 1012.8 0.0
23/02:00am 9.9 7.0 9.8 99 0.1 NE 15 17 8 9 1013.3 1013.3 0.0
23/01:30am 8.9 6.9 8.8 99 0.0 E 9 13 5 7 1013.8 1013.8 0.0
23/01:00am 9.0 7.4 8.9 99 0.0 ENE 7 9 4 5 1014.7 1014.7 0.0
23/12:30am 9.3 8.4 9.2 99 0.0 ENE 4 7 2 4 1014.8 1014.8 0.0
23/12:00am 9.2 7.9 9.1 99 0.0 ENE 6 7 3 4 1015.2 1015.2 0.0
 
Date/Time
EDT
Temp
°C
App
Temp
°C
Dew
Point
°C
Rel
Hum
%
Delta-T
°C
Wind Press
QNH
hPa
Press
MSL
hPa
Rain since
9am
mm
Dir  Spd
km/h
Gust
km/h
Spd
kts
Gust
kts
22/11:30pm 8.5 7.4 8.4 99 0.0 ENE 4 9 2 5 1015.6 1015.6 0.0
22/11:00pm 8.9 6.9 8.8 99 0.0 NE 9 9 5 5 1015.8 1015.8 0.0
22/10:30pm 10.0 8.3 9.7 98 0.2 NE 9 11 5 6 1015.8 1015.8 0.0
22/10:00pm 10.8 9.1 9.9 94 0.5 NE 9 13 5 7 1015.7 1015.7 0.0
22/09:30pm 11.7 10.4 10.1 90 0.8 NE 7 11 4 6 1015.8 1015.8 0.0
22/09:00pm 11.8 11.3 10.7 93 0.6 NNE 4 7 2 4 1015.5 1015.5 0.0
22/08:30pm 12.2 11.9 11.3 94 0.5 N 4 7 2 4 1015.2 1015.2 0.0
22/08:00pm 12.9 11.9 11.1 89 0.9 N 7 9 4 5 1015.2 1015.2 0.0
22/07:30pm 13.3 12.3 11.0 86 1.2 WSW 7 9 4 5 1015.4 1015.4 0.0
22/07:00pm 13.9 12.5 10.9 82 1.6 W 9 11 5 6 1015.0 1015.0 0.0
22/06:30pm 14.7 12.6 11.3 80 1.8 SW 13 15 7 8 1015.0 1015.0 0.0
22/06:00pm 15.4 13.6 11.0 75 2.3 WSW 11 15 6 8 1014.4 1014.4 0.0
22/05:30pm 15.5 14.5 10.3 71 2.7 SW 6 9 3 5 1014.5 1014.5 0.0
22/05:00pm 14.6 13.5 10.8 78 2.0 WSW 7 11 4 6 1014.7 1014.7 0.0
22/04:30pm 14.2 12.9 11.2 82 1.6 WSW 9 13 5 7 1015.2 1015.2 0.0
22/04:00pm 14.3 12.8 11.8 85 1.3 SW 11 15 6 8 1015.0 1015.0 0.0
22/03:30pm 14.1 11.9 10.9 81 1.7 WSW 13 17 7 9 1015.0 1015.0 0.0
22/03:00pm 14.2 12.1 11.2 82 1.6 WSW 13 15 7 8 1015.2 1015.2 0.0
22/02:30pm 14.4 11.9 11.2 81 1.7 SW 15 17 8 9 1015.4 1015.4 0.0
22/02:00pm 14.3 12.1 10.7 79 1.9 SW 13 17 7 9 1015.6 1015.6 0.0
22/01:30pm 14.5 11.6 11.1 80 1.8 WSW 17 20 9 11 1015.7 1015.7 0.0
22/01:00pm 14.6 12.1 11.0 79 1.9 SW 15 19 8 10 1015.7 1015.7 0.0
22/12:30pm 14.9 12.9 11.5 80 1.8 SW 13 17 7 9 1015.7 1015.7 0.0
22/12:00pm 14.6 12.5 11.0 79 1.9 WSW 13 17 7 9 1016.2 1016.2 0.0
22/11:30am 14.3 11.8 11.1 81 1.7 SW 15 19 8 10 1016.5 1016.5 0.0
22/11:00am 14.3 11.7 10.7 79 1.9 WSW 15 19 8 10 1016.5 1016.5 0.0
22/10:30am 14.3 11.4 11.1 81 1.7 W 17 22 9 12 1016.6 1016.6 0.0
22/10:00am 14.3 11.3 10.5 78 2.0 WSW 17 20 9 11 1016.6 1016.6 0.0
22/09:30am 13.8 11.3 11.0 83 1.5 W 15 19 8 10 1016.5 1016.5 0.0
22/09:00am 14.3 11.9 11.5 83 1.5 WNW 15 17 8 9 1016.3 1016.3 0.0
22/08:56am 13.9 11.7 10.9 82 1.6 W 13 17 7 9 1016.4 1016.4 0.0
22/08:30am 13.7 11.8 11.8 88 1.0 W 13 13 7 7 1016.2 1016.2 0.0
22/08:17am 13.5 12.3 11.6 88 1.0 W 9 13 5 7 1016.0 1016.0 0.0
22/08:00am 13.2 12.5 12.1 93 0.6 NW 7 9 4 5 1015.9 1015.9 0.0
22/07:30am 12.0 11.2 11.8 99 0.1 NE 7 9 4 5 1015.9 1015.9 0.0
22/07:00am 10.7 10.9 10.5 99 0.1 CALM 0 0 0 0 1016.0 1016.0 0.0
22/06:30am 10.1 8.8 10.0 99 0.1 NNW 7 9 4 5 1015.7 1015.7 0.0
22/06:00am 10.0 8.7 9.9 99 0.1 NE 7 9 4 5 1015.5 1015.5 0.0

Other formats

Comma delimited format used in spreadsheet applications
http://www.bom.gov.au/fwo/IDT60801/IDT60801.94980.axf

JavaScript Object Notation format (JSON) in row-major order
http://www.bom.gov.au/fwo/IDT60801/IDT60801.94980.json

Data quality

Most of these data are generated automatically and are frequently updated. Quality checks on data are not normally performed. It is possible for incorrect values to appear. Refer to information at About Latest Weather Observations and please check the disclaimer before using these data.